Time;durP1;ratioP1;P1;durP2;ratioP2;P2;SDS_P1;SDS_P2;PMS_P1;PMS_P2;Temp;Humidity;BMP_temperature;BMP_pressure;BME280_temperature;BME280_humidity;BME280_pressure;Samples;Min_cycle;Max_cycle;Signal;HPM_P1;HPM_P2
2022/01/21 00:00:57;;;;;;;11.05;2.45;;;;;;;-144.19;100.00;79355.66;6182379;23;20024;-88
2022/01/21 00:03:24;;;;;;;11.35;2.35;;;;;;;-144.19;100.00;79351.72;6182498;23;20055;-87
2022/01/21 00:05:51;;;;;;;8.70;2.50;;;;;;;-144.19;100.00;79355.66;6156545;23;20071;-88
2022/01/21 00:08:17;;;;;;;8.93;1.83;;;;;;;-144.19;100.00;79373.38;6156500;23;20028;-87
2022/01/21 00:10:44;;;;;;;11.27;2.03;;;;;;;-144.19;100.00;79343.81;6182473;23;20483;-88
2022/01/21 00:13:24;;;;;;;15.57;2.28;;;;;;;-144.19;100.00;79351.72;6155974;23;20076;-88
2022/01/21 00:15:51;;;;;;;15.82;2.42;;;;;;;-144.19;100.00;79353.69;6156133;23;20032;-88
2022/01/21 00:18:19;;;;;;;21.40;2.53;;;;;;;-144.19;100.00;79343.81;6156836;23;20025;-86
2022/01/21 00:31:45;;;;;;;5.45;1.65;;;;;;;-144.19;100.00;79343.81;6181908;23;20021;-88
2022/01/21 00:34:11;;;;;;;8.65;2.20;;;;;;;-144.19;100.00;79367.47;6156138;23;20027;-87
2022/01/21 00:36:38;;;;;;;10.57;1.52;;;;;;;-144.19;100.00;79351.72;6156052;23;20108;-88
2022/01/21 00:39:05;;;;;;;5.63;1.77;;;;;;;-144.19;100.00;79351.72;6182252;23;20021;-86
2022/01/21 00:41:36;;;;;;;;;;;;;;;-144.19;100.00;79355.66;6156663;23;20059;-88
2022/01/21 00:44:02;;;;;;;15.30;2.28;;;;;;;-144.19;100.00;79343.81;6155887;23;19916;-86
2022/01/21 00:46:29;;;;;;;10.70;3.53;;;;;;;-144.19;100.00;79347.78;6156407;23;20349;-88
2022/01/21 00:48:55;;;;;;;9.70;2.40;;;;;;;-144.19;100.00;79339.88;6156001;23;20027;-88
2022/01/21 00:51:22;;;;;;;8.90;1.42;;;;;;;-144.19;100.00;79341.84;6182116;23;20024;-88
2022/01/21 00:53:48;;;;;;;9.55;1.65;;;;;;;-144.19;100.00;79335.94;6181984;23;20021;-88
2022/01/21 00:56:14;;;;;;;10.80;1.73;;;;;;;-144.19;100.00;79339.88;6155540;23;20025;-87
2022/01/21 00:58:41;;;;;;;6.70;1.90;;;;;;;-144.19;100.00;79341.84;6182252;23;20027;-88
2022/01/21 01:01:07;;;;;;;7.45;1.38;;;;;;;-144.19;100.00;79349.75;6182232;23;20025;-88
2022/01/21 01:03:34;;;;;;;5.05;1.75;;;;;;;-144.19;100.00;79341.84;6155753;23;20477;-88
2022/01/21 01:06:00;;;;;;;9.55;1.35;;;;;;;-144.19;100.00;79351.72;6181763;23;20021;-88
2022/01/21 01:08:27;;;;;;;6.80;1.70;;;;;;;-144.19;100.00;79332.00;6156181;23;20043;-87
2022/01/21 01:21:48;;;;;;;7.90;1.58;;;;;;;-144.19;100.00;79373.38;6181779;23;20021;-87
2022/01/21 01:29:44;;;;;;;6.78;1.20;;;;;;;-144.19;100.00;79353.69;6182071;23;20021;-88
2022/01/21 01:32:11;;;;;;;6.75;1.25;;;;;;;-144.19;100.00;79367.47;6155137;23;20031;-88
2022/01/21 01:34:37;;;;;;;5.10;1.50;;;;;;;-144.19;100.00;79369.44;6182129;23;20039;-88
2022/01/21 01:37:10;;;;;;;8.70;1.60;;;;;;;-144.19;100.00;79359.59;6181276;23;20018;-88
2022/01/21 01:39:46;;;;;;;9.70;1.45;;;;;;;-144.19;100.00;79367.47;6182287;23;20021;-89
2022/01/21 01:50:27;;;;;;;4.05;1.00;;;;;;;-144.19;100.00;79347.78;6181967;23;20021;-88
2022/01/21 01:52:53;;;;;;;8.55;2.10;;;;;;;-144.19;100.00;79359.59;6148037;23;20028;-88
2022/01/21 01:55:20;;;;;;;3.33;1.30;;;;;;;-144.19;100.00;79355.66;6152436;23;20505;-87
2022/01/21 01:57:46;;;;;;;7.32;1.13;;;;;;;-144.19;100.00;79339.88;6154005;23;20028;-87
2022/01/21 02:00:13;;;;;;;9.07;1.50;;;;;;;-144.19;100.00;79355.66;6154165;23;20100;-88
2022/01/21 02:02:39;;;;;;;7.97;1.48;;;;;;;-144.19;100.00;79351.72;6153738;23;20022;-87
2022/01/21 02:05:07;;;;;;;8.90;1.30;;;;;;;-144.19;100.00;79375.34;6154934;23;20492;-87
2022/01/21 02:07:33;;;;;;;7.32;1.55;;;;;;;-144.19;100.00;79387.16;6153992;23;20044;-88
2022/01/21 02:09:59;;;;;;;12.13;1.70;;;;;;;-144.19;100.00;79375.34;6154160;23;20028;-88
2022/01/21 02:12:26;;;;;;;11.80;2.22;;;;;;;-144.19;100.00;79385.19;6153497;23;20033;-87
2022/01/21 02:14:54;;;;;;;8.93;1.42;;;;;;;-144.19;100.00;79397.00;6153561;23;20462;-91
2022/01/21 02:22:39;;;;;;;7.80;2.30;;;;;;;-144.19;100.00;79383.22;6155250;23;20022;-87
2022/01/21 02:25:17;;;;;;;15.15;2.28;;;;;;;-144.19;100.00;79375.34;6154062;23;20032;-90
2022/01/21 02:27:45;;;;;;;6.80;1.67;;;;;;;-144.19;100.00;79359.59;6153616;23;20018;-87
2022/01/21 02:30:18;;;;;;;12.57;1.77;;;;;;;-144.19;100.00;79363.53;6155092;23;20039;-87
2022/01/21 02:32:54;;;;;;;10.07;1.95;;;;;;;-144.19;100.00;79371.41;6153091;23;20025;-87
2022/01/21 02:35:22;;;;;;;7.97;2.33;;;;;;;-144.19;100.00;79357.63;6153145;23;20018;-87
2022/01/21 02:37:49;;;;;;;7.93;1.83;;;;;;;-144.19;100.00;79355.66;6157120;23;20013;-89
2022/01/21 02:40:17;;;;;;;8.40;2.45;;;;;;;-144.19;100.00;79367.47;6157660;23;20056;-89
2022/01/21 02:42:44;;;;;;;11.93;2.35;;;;;;;-144.19;100.00;79381.25;6156728;23;20028;-88
2022/01/21 02:45:14;;;;;;;10.00;2.33;;;;;;;-144.19;100.00;79391.09;6157141;23;20027;-90
2022/01/21 02:47:44;;;;;;;12.05;2.13;;;;;;;-144.19;100.00;79387.16;6157432;23;20024;-88
2022/01/21 02:50:12;;;;;;;10.45;2.33;;;;;;;-144.19;100.00;79389.13;6157048;23;20017;-89
2022/01/21 02:52:54;;;;;;;14.10;2.60;;;;;;;-144.19;100.00;79391.09;6155229;23;20018;-89
2022/01/21 02:55:22;;;;;;;11.68;2.20;;;;;;;-144.19;100.00;79379.28;6156812;23;20018;-88
2022/01/21 02:57:48;;;;;;;11.13;2.50;;;;;;;-144.19;100.00;79363.53;6156040;23;20024;-88
2022/01/21 03:00:15;;;;;;;11.35;2.38;;;;;;;-144.19;100.00;79343.81;6156595;23;20363;-88
2022/01/21 03:02:42;;;;;;;10.43;1.98;;;;;;;-144.19;100.00;79351.72;6155243;23;20032;-87
2022/01/21 03:05:13;;;;;;;13.18;2.67;;;;;;;-144.19;100.00;79375.34;6156542;23;20077;-86
2022/01/21 03:07:40;;;;;;;7.47;2.13;;;;;;;-144.19;100.00;79371.41;6171817;23;20044;-88
2022/01/21 03:10:07;;;;;;;9.65;2.30;;;;;;;-144.19;100.00;79391.09;6156595;23;20027;-87
2022/01/21 03:12:34;;;;;;;;;;;;;;;-144.19;100.00;79398.97;6156548;23;20041;-89
2022/01/21 03:15:00;;;;;;;8.68;2.10;;;;;;;-144.19;100.00;79402.91;6156643;23;19991;-87
2022/01/21 03:17:27;;;;;;;14.05;2.38;;;;;;;-144.19;100.00;79391.09;6157736;23;20415;-88
2022/01/21 03:19:53;;;;;;;14.35;2.97;;;;;;;-144.19;100.00;79414.75;6157110;23;20018;-87
2022/01/21 03:22:20;;;;;;;9.80;2.05;;;;;;;-144.19;100.00;79398.97;6156521;23;20052;-88
2022/01/21 03:24:46;;;;;;;10.68;2.33;;;;;;;-144.19;100.00;79414.75;6157329;23;20033;-87
2022/01/21 03:27:13;;;;;;;12.85;2.25;;;;;;;-144.19;100.00;79426.56;6157040;23;20017;-88
2022/01/21 03:29:39;;;;;;;12.45;2.38;;;;;;;-144.19;100.00;79416.72;6156870;23;20100;-86
2022/01/21 03:32:06;;;;;;;8.75;2.00;;;;;;;-144.19;100.00;79432.47;6156440;23;20025;-89
2022/01/21 03:34:32;;;;;;;10.68;2.05;;;;;;;-144.19;100.00;79434.44;6157686;23;20022;-87
2022/01/21 03:37:00;;;;;;;13.88;2.85;;;;;;;-144.19;100.00;79406.88;6155986;23;20096;-87
2022/01/21 03:39:26;;;;;;;15.25;2.03;;;;;;;-144.19;100.00;79408.84;6158642;23;20089;-87
2022/01/21 03:41:53;;;;;;;19.17;2.40;;;;;;;-144.19;100.00;79418.69;6156863;23;20021;-86
2022/01/21 03:44:19;;;;;;;13.77;2.45;;;;;;;-144.19;100.00;79426.56;6156905;23;20085;-87
2022/01/21 03:46:46;;;;;;;12.05;2.35;;;;;;;-144.19;100.00;79434.44;6156153;23;20025;-88
2022/01/21 03:49:12;;;;;;;10.32;2.35;;;;;;;-144.19;100.00;79434.44;6156935;23;20021;-91
2022/01/21 03:51:39;;;;;;;14.63;2.55;;;;;;;-144.19;100.00;79414.75;6153990;23;20053;-86
2022/01/21 03:54:05;;;;;;;13.27;2.42;;;;;;;-144.19;100.00;79418.69;6156554;23;20025;-88
2022/01/21 03:56:32;;;;;;;12.98;2.65;;;;;;;-144.19;100.00;79410.81;6155953;23;20021;-89
2022/01/21 03:58:58;;;;;;;13.18;2.42;;;;;;;-144.19;100.00;79398.97;6156530;23;20060;-87
2022/01/21 04:01:25;;;;;;;9.48;2.88;;;;;;;-144.19;100.00;79387.16;6156036;23;20391;-87
2022/01/21 04:03:52;;;;;;;9.40;2.35;;;;;;;-144.19;100.00;79406.88;6155812;23;20025;-88
2022/01/21 04:06:18;;;;;;;11.98;2.67;;;;;;;-144.19;100.00;79414.75;6155991;23;20369;-86
2022/01/21 04:08:45;;;;;;;13.25;2.53;;;;;;;-144.19;100.00;79416.72;6155241;23;20027;-86
2022/01/21 04:11:11;;;;;;;11.15;2.17;;;;;;;-144.19;100.00;79414.75;6156244;23;20024;-87
2022/01/21 04:13:38;;;;;;;10.13;3.15;;;;;;;-144.19;100.00;79383.22;6155881;23;20392;-86
2022/01/21 04:16:04;;;;;;;14.27;2.30;;;;;;;-144.19;100.00;79391.09;6156053;23;20025;-88
2022/01/21 04:18:33;;;;;;;9.38;1.98;;;;;;;-144.19;100.00;79383.22;6156500;23;20021;-87
2022/01/21 04:20:59;;;;;;;18.73;2.95;;;;;;;-144.19;100.00;79398.97;6157518;23;20024;-87
2022/01/21 04:23:26;;;;;;;12.30;2.92;;;;;;;-144.19;100.00;79391.09;6155358;23;20092;-89
2022/01/21 04:25:52;;;;;;;10.05;2.80;;;;;;;-144.19;100.00;79395.03;6156092;23;20018;-88
2022/01/21 04:28:19;;;;;;;12.32;2.25;;;;;;;-144.19;100.00;79395.03;6154773;23;20024;-88
2022/01/21 04:30:47;;;;;;;11.40;2.63;;;;;;;-144.19;100.00;79383.22;6157042;23;20047;-87
2022/01/21 04:33:13;;;;;;;16.35;2.40;;;;;;;-144.19;100.00;79385.19;6155557;23;20100;-88
2022/01/21 04:35:40;;;;;;;16.33;3.17;;;;;;;-144.19;100.00;79375.34;6156241;23;20028;-88
2022/01/21 04:38:09;;;;;;;10.60;1.83;;;;;;;-144.19;100.00;79375.34;6156820;23;20084;-87
2022/01/21 04:40:45;;;;;;;10.25;2.13;;;;;;;-144.19;100.00;79371.41;6157619;23;20028;-87
2022/01/21 04:48:42;;;;;;;14.88;2.65;;;;;;;-144.19;100.00;79398.97;6158743;23;20072;-89
2022/01/21 04:51:17;;;;;;;7.55;1.90;;;;;;;-144.19;100.00;79395.03;6157347;23;20056;-89
2022/01/21 04:53:45;;;;;;;12.43;2.35;;;;;;;-144.19;100.00;79371.41;6180781;23;20484;-86
2022/01/21 04:56:12;;;;;;;11.18;3.25;;;;;;;-144.19;100.00;79385.19;6160335;23;20017;-87
2022/01/21 04:58:39;;;;;;;10.82;3.03;;;;;;;-144.19;100.00;79371.41;6160778;23;20092;-85
2022/01/21 05:01:06;;;;;;;12.65;2.13;;;;;;;-144.19;100.00;79365.50;6160580;23;20116;-85
2022/01/21 05:03:35;;;;;;;11.20;2.17;;;;;;;-144.19;100.00;79345.81;6160350;23;20454;-86
2022/01/21 05:06:02;;;;;;;9.90;1.65;;;;;;;-144.19;100.00;79371.41;6160333;23;20072;-88
2022/01/21 05:08:41;;;;;;;12.88;2.10;;;;;;;-144.19;100.00;79377.31;6160233;23;20032;-87
2022/01/21 05:11:09;;;;;;;7.65;1.85;;;;;;;-144.19;100.00;79373.38;6161689;23;20035;-88
2022/01/21 05:13:42;;;;;;;7.40;1.88;;;;;;;-144.19;100.00;79375.34;6186119;23;20072;-87
2022/01/21 05:18:57;;;;;;;9.82;1.80;;;;;;;-144.19;100.00;79363.53;6187090;23;20024;-87
2022/01/21 05:21:24;;;;;;;8.60;2.15;;;;;;;-144.19;100.00;79351.72;6160897;23;20021;-87
2022/01/21 05:23:50;;;;;;;8.88;2.28;;;;;;;-144.19;100.00;79367.47;6160652;23;20028;-88
2022/01/21 05:26:17;;;;;;;10.40;1.77;;;;;;;-144.19;100.00;79347.78;6161064;23;20021;-86
2022/01/21 05:28:44;;;;;;;11.45;2.00;;;;;;;-144.19;100.00;79351.72;6187108;23;20096;-88
2022/01/21 05:31:10;;;;;;;10.45;2.33;;;;;;;-144.19;100.00;79332.00;6161396;23;20024;-86
2022/01/21 05:33:37;;;;;;;8.07;2.33;;;;;;;-144.19;100.00;79330.03;6187607;23;20045;-87
2022/01/21 05:36:04;;;;;;;8.95;1.85;;;;;;;-144.19;100.00;79328.06;6189726;23;20133;-87
2022/01/21 05:38:30;;;;;;;12.27;2.50;;;;;;;-144.19;100.00;79330.03;6188839;23;20096;-85
2022/01/21 05:40:56;;;;;;;11.13;2.92;;;;;;;-144.19;100.00;79355.66;6163262;23;20017;-89
2022/01/21 05:43:23;;;;;;;12.75;2.10;;;;;;;-144.19;100.00;79343.81;6162869;23;20025;-89
2022/01/21 05:48:35;;;;;;;12.13;2.53;;;;;;;-144.19;100.00;79343.81;6190264;23;20028;-84
2022/01/21 05:51:01;;;;;;;14.32;2.60;;;;;;;-144.19;100.00;79341.84;6192056;23;20017;-87
2022/01/21 05:53:28;;;;;;;9.73;1.88;;;;;;;-144.19;100.00;79339.88;6190577;23;20048;-86
2022/01/21 05:56:00;;;;;;;7.73;1.77;;;;;;;-144.19;100.00;79332.00;6164175;23;20029;-86
2022/01/21 05:58:27;;;;;;;12.20;2.15;;;;;;;-144.19;100.00;79320.19;6163602;23;20279;-88
2022/01/21 06:00:53;;;;;;;8.68;1.83;;;;;;;-144.19;100.00;79324.13;6163434;23;20021;-88
2022/01/21 06:03:20;;;;;;;12.45;1.80;;;;;;;-144.19;100.00;79316.25;6163455;23;20341;-89
2022/01/21 06:05:50;;;;;;;4.53;1.17;;;;;;;-144.19;100.00;79335.94;6163538;23;20092;-85
2022/01/21 06:08:17;;;;;;;9.32;2.10;;;;;;;-144.19;100.00;79353.69;6163139;23;20092;-86
2022/01/21 06:10:43;;;;;;;8.52;1.38;;;;;;;-144.19;100.00;79343.81;6164035;23;20103;-88
2022/01/21 06:13:13;;;;;;;8.75;1.75;;;;;;;-144.19;100.00;79328.06;6162705;23;20021;-89
2022/01/21 06:15:39;;;;;;;7.57;1.58;;;;;;;-144.19;100.00;79328.06;6163580;23;20092;-87
2022/01/21 06:18:05;;;;;;;10.68;1.95;;;;;;;-144.19;100.00;79310.34;6163492;23;20080;-87
2022/01/21 06:20:32;;;;;;;11.60;2.47;;;;;;;-144.19;100.00;79335.94;6166289;23;20021;-87
2022/01/21 06:22:58;;;;;;;6.70;1.40;;;;;;;-144.19;100.00;79345.81;6164239;23;20104;-85
2022/01/21 06:25:26;;;;;;;10.70;1.70;;;;;;;-144.19;100.00;79345.81;6177882;23;20111;-89
2022/01/21 06:27:52;;;;;;;14.90;2.30;;;;;;;-144.19;100.00;79332.00;6167022;23;20073;-88
2022/01/21 06:30:19;;;;;;;10.43;1.88;;;;;;;-144.19;100.00;79320.19;6165946;23;20048;-88
2022/01/21 06:32:45;;;;;;;11.55;2.00;;;;;;;-144.19;100.00;79316.25;6165268;23;20027;-88
2022/01/21 06:35:12;;;;;;;12.38;1.80;;;;;;;-144.19;100.00;79330.03;6165197;23;20033;-89
2022/01/21 06:37:39;;;;;;;;;;;;;;;-144.19;100.00;79333.97;6166313;23;20045;-88
2022/01/21 06:40:08;;;;;;;13.10;2.60;;;;;;;-144.19;100.00;79339.88;6164048;23;19920;-89
2022/01/21 06:42:34;;;;;;;5.63;1.48;;;;;;;-144.19;100.00;79324.13;6164499;23;20063;-88
2022/01/21 06:45:01;;;;;;;8.88;2.20;;;;;;;-144.19;100.00;79328.06;6164217;23;20028;-86
2022/01/21 06:47:28;;;;;;;;;;;;;;;-144.19;100.00;79328.06;6191298;23;20033;-87
2022/01/21 06:49:58;;;;;;;8.50;2.65;;;;;;;-144.19;100.00;79316.25;6164009;23;19916;-87
2022/01/21 06:52:27;;;;;;;8.90;2.00;;;;;;;-144.19;100.00;79332.00;6163379;23;20104;-86
2022/01/21 06:54:54;;;;;;;8.63;2.95;;;;;;;-144.19;100.00;79347.78;6162443;23;20060;-88
2022/01/21 06:57:21;;;;;;;8.10;3.20;;;;;;;-144.19;100.00;79349.75;6162652;23;20096;-86
2022/01/21 06:59:48;;;;;;;8.10;2.05;;;;;;;-144.19;100.00;79347.78;6162672;23;20019;-85
2022/01/21 07:02:15;;;;;;;;;;;;;;;-144.19;100.00;79361.56;6162525;23;20021;-86
2022/01/21 07:04:41;;;;;;;5.15;2.65;;;;;;;-144.19;100.00;79381.25;6163206;23;19916;-86
2022/01/21 07:07:08;;;;;;;5.35;2.70;;;;;;;-144.19;100.00;79371.41;6162315;23;20027;-88
2022/01/21 07:09:34;;;;;;;7.47;2.70;;;;;;;-144.19;100.00;79361.56;6162132;23;20024;-87
2022/01/21 07:12:00;;;;;;;10.35;2.63;;;;;;;-144.19;100.00;79367.47;6161377;23;20048;-87
2022/01/21 07:14:27;;;;;;;6.60;2.47;;;;;;;-144.19;100.00;79351.72;6161666;23;20378;-85
2022/01/21 07:16:53;;;;;;;8.93;2.90;;;;;;;-144.19;100.00;79369.44;6159931;23;20257;-84
2022/01/21 07:19:20;;;;;;;13.98;4.15;;;;;;;-144.19;100.00;79349.75;6161387;23;20021;-87
2022/01/21 07:21:46;;;;;;;7.35;2.75;;;;;;;-144.19;100.00;79351.72;6160345;23;20032;-88
2022/01/21 07:24:13;;;;;;;10.00;2.55;;;;;;;-144.19;100.00;79330.03;6161005;23;20023;-89
2022/01/21 07:26:39;;;;;;;13.75;3.22;;;;;;;-144.19;100.00;79339.88;6160661;23;20020;-86
2022/01/21 07:29:06;;;;;;;10.00;2.30;;;;;;;-144.19;100.00;79349.75;6161278;23;20031;-86
2022/01/21 07:31:32;;;;;;;9.93;2.63;;;;;;;-144.19;100.00;79328.06;6161255;23;20052;-88
2022/01/21 07:34:04;;;;;;;7.95;1.90;;;;;;;-144.19;100.00;79347.78;6159840;23;20025;-88
2022/01/21 07:36:32;;;;;;;11.90;2.42;;;;;;;-144.19;100.00;79324.13;6160265;23;20043;-90
2022/01/21 07:38:59;;;;;;;4.80;1.67;;;;;;;-144.19;100.00;79347.78;6160404;23;20055;-90
2022/01/21 07:41:26;;;;;;;10.13;2.00;;;;;;;-144.19;100.00;79347.78;6161446;23;20027;-88
2022/01/21 07:43:53;;;;;;;6.13;1.77;;;;;;;-144.19;100.00;79330.03;6160994;23;20021;-89
2022/01/21 07:46:20;;;;;;;6.05;2.38;;;;;;;-144.19;100.00;79343.81;6161010;23;20031;-89
2022/01/21 07:48:47;;;;;;;6.72;1.70;;;;;;;-144.19;100.00;79353.69;6159965;23;20017;-88
2022/01/21 07:51:13;;;;;;;8.05;2.42;;;;;;;-144.19;100.00;79347.78;6159740;23;20031;-88
2022/01/21 07:53:40;;;;;;;7.32;1.60;;;;;;;-144.19;100.00;79371.41;6153665;23;20472;-85
2022/01/21 07:56:06;;;;;;;11.73;2.27;;;;;;;-144.19;100.00;79341.84;6184854;23;20033;-86
2022/01/21 07:58:33;;;;;;;5.53;1.42;;;;;;;-144.19;100.00;79371.41;6184868;23;20720;-86
2022/01/21 08:00:59;;;;;;;8.85;2.00;;;;;;;-144.19;100.00;79363.53;6158627;23;20028;-86
2022/01/21 08:03:26;;;;;;;;;;;;;;;-144.19;100.00;79365.50;6184323;23;20028;-86
2022/01/21 08:05:53;;;;;;;4.05;2.10;;;;;;;-144.19;100.00;79369.44;6182803;23;19923;-86
2022/01/21 08:08:19;;;;;;;6.03;2.08;;;;;;;-144.19;100.00;79369.44;6184087;23;20021;-86
2022/01/21 08:10:50;;;;;;;7.70;2.72;;;;;;;-144.19;100.00;79363.53;6184194;23;20031;-86
2022/01/21 08:13:16;;;;;;;8.82;2.65;;;;;;;-144.19;100.00;79347.78;6157381;23;20027;-86
2022/01/21 08:15:43;;;;;;;6.50;2.10;;;;;;;-144.19;100.00;79345.81;6181684;23;20025;-85
2022/01/21 08:18:09;;;;;;;8.98;2.03;;;;;;;-144.19;100.00;79343.81;6184110;23;20251;-86
2022/01/21 08:20:36;;;;;;;6.75;2.20;;;;;;;-144.19;100.00;79347.78;6184432;23;20071;-86
2022/01/21 08:23:02;;;;;;;8.63;2.25;;;;;;;-144.19;100.00;79339.88;6184522;23;20040;-86
2022/01/21 08:25:29;;;;;;;9.05;1.77;;;;;;;-144.19;100.00;79332.00;6184441;23;20017;-86
2022/01/21 08:27:55;;;;;;;9.77;2.28;;;;;;;-144.19;100.00;79347.78;6157572;23;20029;-86
2022/01/21 08:30:22;;;;;;;7.97;2.13;;;;;;;-144.19;100.00;79347.78;6157502;23;20031;-86
2022/01/21 08:32:48;;;;;;;7.88;2.17;;;;;;;-144.19;100.00;79367.47;6157395;23;20025;-86
2022/01/21 08:35:15;;;;;;;8.90;1.83;;;;;;;-144.19;100.00;79343.81;6183581;23;20027;-85
2022/01/21 08:37:41;;;;;;;11.47;2.43;;;;;;;-144.19;100.00;79353.69;6183847;23;20248;-86
2022/01/21 08:40:09;;;;;;;6.67;1.77;;;;;;;-144.19;100.00;79355.66;6183632;23;20296;-84
2022/01/21 08:42:36;;;;;;;9.00;1.70;;;;;;;-144.19;100.00;79365.50;6183163;23;20486;-85
2022/01/21 08:45:03;;;;;;;9.23;2.10;;;;;;;-144.19;100.00;79337.91;6158018;23;20120;-85
2022/01/21 08:47:30;;;;;;;9.00;1.95;;;;;;;-144.19;100.00;79343.81;6183666;23;20043;-85
2022/01/21 08:50:00;;;;;;;8.15;2.38;;;;;;;-144.19;100.00;79333.97;6157415;23;20055;-85
2022/01/21 08:52:29;;;;;;;11.88;2.50;;;;;;;-144.19;100.00;79330.03;6183474;23;20027;-85
2022/01/21 08:54:56;;;;;;;13.80;2.45;;;;;;;-144.19;100.00;79306.41;6183529;23;20023;-86
2022/01/21 08:57:22;;;;;;;6.15;1.98;;;;;;;-144.19;100.00;79320.19;6184140;23;20365;-85
2022/01/21 08:59:49;;;;;;;14.02;3.72;;;;;;;-144.19;100.00;79314.28;6182593;23;20021;-87
2022/01/21 09:02:16;;;;;;;6.90;2.22;;;;;;;-144.19;100.00;79324.13;6184009;23;20044;-86
2022/01/21 09:04:42;;;;;;;8.15;2.08;;;;;;;-144.19;100.00;79310.34;6185845;23;20081;-85
2022/01/21 09:07:09;;;;;;;6.88;2.35;;;;;;;-144.19;100.00;79306.41;6184443;23;20335;-85
2022/01/21 09:09:35;;;;;;;6.82;2.35;;;;;;;-144.19;100.00;79272.91;6186395;23;20025;-86
2022/01/21 09:12:02;;;;;;;10.80;2.15;;;;;;;-144.19;100.00;79296.56;6186810;23;20051;-85
2022/01/21 09:14:30;;;;;;;11.07;2.13;;;;;;;-144.19;100.00;79278.81;6185225;23;20099;-86
2022/01/21 09:16:57;;;;;;;8.70;2.25;;;;;;;-144.19;100.00;79241.41;6185261;23;20021;-85
2022/01/21 09:19:24;;;;;;;10.13;2.38;;;;;;;-144.19;100.00;79241.41;6186186;23;20077;-86
2022/01/21 09:21:52;;;;;;;18.05;3.95;;;;;;;-144.19;100.00;79237.47;6185753;23;20100;-85
2022/01/21 09:24:19;;;;;;;9.35;1.88;;;;;;;-144.19;100.00;79257.16;6186325;23;20059;-85
2022/01/21 09:26:46;;;;;;;9.52;1.80;;;;;;;-144.19;100.00;79227.63;6185339;23;20475;-86
2022/01/21 09:29:14;;;;;;;7.53;2.20;;;;;;;-144.19;100.00;79209.88;6185186;23;20021;-85
2022/01/21 09:31:41;;;;;;;11.40;2.47;;;;;;;-144.19;100.00;79229.59;6185030;23;20028;-86
2022/01/21 09:34:25;;;;;;;8.73;1.50;;;;;;;-144.19;100.00;79223.69;6185270;23;20345;-85
2022/01/21 09:36:53;;;;;;;8.85;2.05;;;;;;;-144.19;100.00;79213.81;6186363;23;20027;-86
2022/01/21 09:39:19;;;;;;;10.18;1.60;;;;;;;-144.19;100.00;79190.19;6185186;23;20446;-86
2022/01/21 09:41:46;;;;;;;13.32;2.60;;;;;;;-144.19;100.00;79172.47;6185536;23;20031;-86
2022/01/21 09:44:14;;;;;;;10.95;2.13;;;;;;;-144.19;100.00;79182.31;6186511;23;20021;-85
2022/01/21 09:46:47;;;;;;;10.05;1.85;;;;;;;-144.19;100.00;79182.31;6185080;23;20025;-85
2022/01/21 09:49:26;;;;;;;11.02;1.75;;;;;;;-144.19;100.00;79166.56;6188095;23;20027;-85
2022/01/21 09:51:59;;;;;;;6.85;1.73;;;;;;;-144.19;100.00;79137.00;6187120;23;20021;-85
2022/01/21 09:54:29;;;;;;;12.05;1.83;;;;;;;-144.19;100.00;79150.78;6191976;23;20028;-86
2022/01/21 09:56:57;;;;;;;6.60;1.40;;;;;;;-144.19;100.00;79148.81;6187870;23;20338;-86
2022/01/21 09:59:26;;;;;;;6.25;1.63;;;;;;;-144.19;100.00;79123.22;6187926;23;20017;-87
2022/01/21 10:02:00;;;;;;;5.20;1.23;;;;;;;-144.19;100.00;79133.06;6187913;23;20031;-84
2022/01/21 10:04:29;;;;;;;15.07;2.17;;;;;;;-144.19;100.00;79107.47;6186102;23;20116;-86
2022/01/21 10:06:57;;;;;;;13.80;1.83;;;;;;;-144.19;100.00;79107.47;6183702;23;20025;-88
2022/01/21 10:09:25;;;;;;;10.55;1.63;;;;;;;-144.19;100.00;79111.41;6185120;23;20476;-86
2022/01/21 10:11:53;;;;;;;11.07;1.83;;;;;;;-144.19;100.00;79075.94;6184212;23;20222;-86
2022/01/21 10:14:21;;;;;;;5.35;1.42;;;;;;;-144.19;100.00;79070.03;6184966;23;20027;-87
2022/01/21 10:16:48;;;;;;;7.30;1.48;;;;;;;-144.19;100.00;79091.72;6182943;23;20025;-87
2022/01/21 10:19:29;;;;;;;7.63;2.20;;;;;;;-144.19;100.00;79072.00;6182514;23;20024;-86
2022/01/21 10:21:59;;;;;;;10.00;1.60;;;;;;;-144.19;100.00;79072.00;6184568;23;20025;-86
2022/01/21 10:24:27;;;;;;;9.75;1.73;;;;;;;-144.19;100.00;79073.97;6182382;23;20456;-87
2022/01/21 10:26:55;;;;;;;6.78;1.45;;;;;;;-144.19;100.00;79042.47;6183104;23;20338;-87
2022/01/21 10:29:22;;;;;;;14.05;1.50;;;;;;;-144.19;100.00;79083.81;6182339;23;20025;-91
2022/01/21 10:31:58;;;;;;;7.78;1.40;;;;;;;-144.19;100.00;79048.38;6184388;23;20352;-87
2022/01/21 10:34:39;;;;;;;11.65;1.95;;;;;;;-144.19;100.00;79056.25;6182553;23;20021;-88
2022/01/21 10:37:26;;;;;;;9.02;1.92;;;;;;;-144.19;100.00;79050.34;6182855;23;20091;-86
2022/01/21 10:39:59;;;;;;;12.77;2.15;;;;;;;-144.19;100.00;79036.56;6185123;23;20021;-86
2022/01/21 10:42:26;;;;;;;9.43;2.03;;;;;;;-144.19;100.00;79003.06;6183317;23;20043;-87
2022/01/21 10:44:53;;;;;;;;;;;;;;;-144.19;100.00;79003.06;6183150;23;20021;-86
2022/01/21 10:47:29;;;;;;;8.77;1.80;;;;;;;-144.19;100.00;79005.03;6182614;23;20255;-87
2022/01/21 10:50:06;;;;;;;8.15;2.03;;;;;;;-144.19;100.00;79001.09;6183803;23;20032;-87
2022/01/21 10:52:39;;;;;;;9.30;1.75;;;;;;;-144.19;100.00;79012.91;6181768;23;20027;-87
2022/01/21 10:55:35;;;;;;;15.73;2.05;;;;;;;-144.19;100.00;78981.41;6184544;23;20519;-87
2022/01/21 10:58:07;;;;;;;9.38;1.67;;;;;;;-144.19;100.00;78957.78;6183017;23;20103;-87
2022/01/21 11:00:35;;;;;;;11.77;1.88;;;;;;;-144.19;100.00;78981.41;6182737;23;20109;-86
2022/01/21 11:03:13;;;;;;;8.23;2.22;;;;;;;-144.19;100.00;78987.31;6183477;23;20021;-87
2022/01/21 11:05:44;;;;;;;11.27;2.28;;;;;;;-144.19;100.00;78977.47;6182802;23;20032;-86
2022/01/21 11:08:12;;;;;;;8.52;1.80;;;;;;;-144.19;100.00;78973.53;6182510;23;20021;-87
2022/01/21 11:10:46;;;;;;;7.13;2.38;;;;;;;-144.19;100.00;78979.44;6183514;23;20021;-87
2022/01/21 11:13:12;;;;;;;9.13;2.00;;;;;;;-144.19;100.00;78989.28;6181362;23;20083;-87
2022/01/21 11:15:43;;;;;;;17.05;2.30;;;;;;;-144.19;100.00;78945.94;6182575;23;20021;-87
2022/01/21 11:18:14;;;;;;;13.52;2.40;;;;;;;-144.19;100.00;78938.06;6183912;23;20040;-87
2022/01/21 11:20:42;;;;;;;9.65;2.15;;;;;;;-144.19;100.00;78945.94;6183013;23;20025;-87
2022/01/21 11:23:09;;;;;;;10.23;2.08;;;;;;;-144.19;100.00;78957.78;6184575;23;20031;-87
2022/01/21 11:25:47;;;;;;;8.95;2.50;;;;;;;-144.19;100.00;78945.94;6183425;23;20027;-87
2022/01/21 11:28:18;;;;;;;;;;;;;;;-144.19;100.00;78945.94;6185094;23;20063;-87
2022/01/21 11:30:45;;;;;;;10.35;2.60;;;;;;;-144.19;100.00;78904.59;6181923;23;20363;-86
2022/01/21 11:33:12;;;;;;;10.40;2.20;;;;;;;-144.19;100.00;78890.81;6182574;23;20022;-87
2022/01/21 11:35:39;;;;;;;10.48;2.80;;;;;;;-144.19;100.00;78898.69;6183745;23;20021;-87
2022/01/21 11:38:08;;;;;;;10.50;2.15;;;;;;;-144.19;100.00;78892.78;6184001;23;20025;-88
2022/01/21 11:40:35;;;;;;;8.38;2.05;;;;;;;-144.19;100.00;78882.94;6181987;23;20025;-87
2022/01/21 11:43:04;;;;;;;10.98;2.10;;;;;;;-144.19;100.00;78875.06;6181201;23;20035;-87
2022/01/21 11:51:16;;;;;;;9.13;2.13;;;;;;;-144.19;100.00;78902.63;6179605;23;20021;-86
2022/01/21 11:53:44;;;;;;;12.80;2.17;;;;;;;-144.19;100.00;78879.00;6180496;23;20021;-86
2022/01/21 11:56:46;;;;;;;10.35;2.30;;;;;;;-144.19;100.00;78867.16;6182832;23;20027;-88
2022/01/21 11:59:29;;;;;;;11.23;2.58;;;;;;;-144.19;100.00;78851.41;6182643;23;20035;-86
2022/01/21 12:01:56;;;;;;;11.43;2.45;;;;;;;-144.19;100.00;78833.69;6182328;23;20040;-86
2022/01/21 12:04:43;;;;;;;11.48;3.13;;;;;;;-144.19;100.00;78829.75;6181582;23;20052;-86
2022/01/21 12:07:25;;;;;;;11.15;1.98;;;;;;;-144.19;100.00;78867.16;6183208;23;20385;-86
2022/01/21 12:09:59;;;;;;;12.73;2.08;;;;;;;-144.19;100.00;78827.78;6181216;23;20425;-89